sensor_id;sensor_type;location;lat;lon;timestamp;pressure;altitude;pressure_sealevel;temperature;humidity
37852;BME280;23691;52.486;4.650;2023-05-21T00:01:02;102101.69;;;15.85;64.03
37852;BME280;23691;52.486;4.650;2023-05-21T00:03:29;102096.78;;;15.81;64.09
37852;BME280;23691;52.486;4.650;2023-05-21T00:05:55;102092.25;;;15.73;64.18
37852;BME280;23691;52.486;4.650;2023-05-21T00:08:21;102086.31;;;15.70;64.11
37852;BME280;23691;52.486;4.650;2023-05-21T00:10:47;102080.22;;;15.67;64.45
37852;BME280;23691;52.486;4.650;2023-05-21T00:13:12;102087.16;;;15.70;64.62
37852;BME280;23691;52.486;4.650;2023-05-21T00:15:38;102082.91;;;15.67;64.28
37852;BME280;23691;52.486;4.650;2023-05-21T00:18:04;102081.41;;;15.65;64.47
37852;BME280;23691;52.486;4.650;2023-05-21T00:20:30;102082.25;;;15.65;64.71
37852;BME280;23691;52.486;4.650;2023-05-21T00:22:58;102079.88;;;15.62;64.65
37852;BME280;23691;52.486;4.650;2023-05-21T00:25:26;102083.06;;;15.58;64.84
37852;BME280;23691;52.486;4.650;2023-05-21T00:27:53;102081.41;;;15.57;64.85
37852;BME280;23691;52.486;4.650;2023-05-21T00:30:19;102079.53;;;15.57;64.85
37852;BME280;23691;52.486;4.650;2023-05-21T00:32:44;102085.47;;;15.61;64.72
37852;BME280;23691;52.486;4.650;2023-05-21T00:35:09;102084.44;;;15.62;64.75
37852;BME280;23691;52.486;4.650;2023-05-21T00:37:35;102079.72;;;15.64;64.81
37852;BME280;23691;52.486;4.650;2023-05-21T00:40:02;102071.78;;;15.62;64.81
37852;BME280;23691;52.486;4.650;2023-05-21T00:42:31;102067.75;;;15.58;65.32
37852;BME280;23691;52.486;4.650;2023-05-21T00:44:56;102071.44;;;15.57;65.13
37852;BME280;23691;52.486;4.650;2023-05-21T00:47:23;102077.34;;;15.53;65.45
37852;BME280;23691;52.486;4.650;2023-05-21T00:49:49;102068.94;;;15.56;65.51
37852;BME280;23691;52.486;4.650;2023-05-21T00:52:17;102065.91;;;15.59;65.23
37852;BME280;23691;52.486;4.650;2023-05-21T00:54:46;102068.44;;;15.60;65.45
37852;BME280;23691;52.486;4.650;2023-05-21T00:57:12;102057.47;;;15.62;65.79
37852;BME280;23691;52.486;4.650;2023-05-21T00:59:38;102063.69;;;15.62;65.36
37852;BME280;23691;52.486;4.650;2023-05-21T01:02:04;102054.09;;;15.60;65.59
37852;BME280;23691;52.486;4.650;2023-05-21T01:04:31;102052.56;;;15.57;65.64
37852;BME280;23691;52.486;4.650;2023-05-21T01:06:56;102054.44;;;15.57;66.02
37852;BME280;23691;52.486;4.650;2023-05-21T01:09:25;102051.38;;;15.60;65.92
37852;BME280;23691;52.486;4.650;2023-05-21T01:11:50;102047.84;;;15.59;65.85
37852;BME280;23691;52.486;4.650;2023-05-21T01:14:17;102051.56;;;15.58;65.84
37852;BME280;23691;52.486;4.650;2023-05-21T01:16:45;102045.31;;;15.58;65.79
37852;BME280;23691;52.486;4.650;2023-05-21T01:19:17;102049.56;;;15.60;66.11
37852;BME280;23691;52.486;4.650;2023-05-21T01:21:50;102045.16;;;15.67;65.96
37852;BME280;23691;52.486;4.650;2023-05-21T01:24:17;102053.09;;;15.69;66.01
37852;BME280;23691;52.486;4.650;2023-05-21T01:26:43;102047.84;;;15.67;66.05
37852;BME280;23691;52.486;4.650;2023-05-21T01:29:11;102046.84;;;15.68;66.19
37852;BME280;23691;52.486;4.650;2023-05-21T01:32:10;102048.25;;;15.73;66.12
37852;BME280;23691;52.486;4.650;2023-05-21T01:34:54;102049.91;;;15.74;65.91
37852;BME280;23691;52.486;4.650;2023-05-21T01:37:26;102043.00;;;15.71;66.11
37852;BME280;23691;52.486;4.650;2023-05-21T01:42:46;102049.09;;;15.73;66.29
37852;BME280;23691;52.486;4.650;2023-05-21T01:45:13;102041.66;;;15.75;66.21
37852;BME280;23691;52.486;4.650;2023-05-21T01:47:39;102041.13;;;15.80;66.07
37852;BME280;23691;52.486;4.650;2023-05-21T01:50:06;102038.13;;;15.83;66.18
37852;BME280;23691;52.486;4.650;2023-05-21T01:52:33;102039.09;;;15.82;66.31
37852;BME280;23691;52.486;4.650;2023-05-21T01:54:58;102032.19;;;15.79;66.32
37852;BME280;23691;52.486;4.650;2023-05-21T01:57:24;102031.19;;;15.80;66.66
37852;BME280;23691;52.486;4.650;2023-05-21T01:59:50;102039.28;;;15.80;66.61
37852;BME280;23691;52.486;4.650;2023-05-21T02:02:17;102048.03;;;15.82;66.60
37852;BME280;23691;52.486;4.650;2023-05-21T02:04:43;102041.81;;;15.82;66.54
37852;BME280;23691;52.486;4.650;2023-05-21T02:07:10;102044.69;;;15.80;66.63
37852;BME280;23691;52.486;4.650;2023-05-21T02:09:38;102043.00;;;15.79;66.73
37852;BME280;23691;52.486;4.650;2023-05-21T02:12:05;102044.00;;;15.78;66.79
37852;BME280;23691;52.486;4.650;2023-05-21T02:14:31;102043.69;;;15.73;66.95
37852;BME280;23691;52.486;4.650;2023-05-21T02:17:00;102037.44;;;15.73;67.16
37852;BME280;23691;52.486;4.650;2023-05-21T02:19:26;102034.56;;;15.74;67.14
37852;BME280;23691;52.486;4.650;2023-05-21T02:21:52;102044.53;;;15.74;67.11
37852;BME280;23691;52.486;4.650;2023-05-21T02:24:17;102043.50;;;15.75;67.13
37852;BME280;23691;52.486;4.650;2023-05-21T02:26:42;102037.78;;;15.78;67.18
37852;BME280;23691;52.486;4.650;2023-05-21T02:29:08;102039.28;;;15.80;67.05
37852;BME280;23691;52.486;4.650;2023-05-21T02:31:33;102039.63;;;15.85;66.93
37852;BME280;23691;52.486;4.650;2023-05-21T02:33:59;102043.31;;;15.84;66.86
37852;BME280;23691;52.486;4.650;2023-05-21T02:36:24;102034.38;;;15.84;67.02
37852;BME280;23691;52.486;4.650;2023-05-21T02:38:50;102046.22;;;15.83;67.24
37852;BME280;23691;52.486;4.650;2023-05-21T02:41:16;102044.84;;;15.79;67.35
37852;BME280;23691;52.486;4.650;2023-05-21T02:43:42;102044.16;;;15.77;67.35
37852;BME280;23691;52.486;4.650;2023-05-21T02:46:07;102037.59;;;15.79;67.31
37852;BME280;23691;52.486;4.650;2023-05-21T02:48:32;102034.41;;;15.76;67.69
37852;BME280;23691;52.486;4.650;2023-05-21T02:50:58;102044.00;;;15.78;67.26
37852;BME280;23691;52.486;4.650;2023-05-21T02:53:23;102041.66;;;15.83;67.21
37852;BME280;23691;52.486;4.650;2023-05-21T02:55:50;102032.72;;;15.83;67.32
37852;BME280;23691;52.486;4.650;2023-05-21T02:58:15;102038.28;;;15.81;67.55
37852;BME280;23691;52.486;4.650;2023-05-21T03:00:41;102027.47;;;15.81;67.48
37852;BME280;23691;52.486;4.650;2023-05-21T03:03:06;102036.41;;;15.82;67.44
37852;BME280;23691;52.486;4.650;2023-05-21T03:05:32;102036.25;;;15.83;67.21
37852;BME280;23691;52.486;4.650;2023-05-21T03:07:57;102034.06;;;15.79;67.34
37852;BME280;23691;52.486;4.650;2023-05-21T03:10:23;102035.25;;;15.76;67.53
37852;BME280;23691;52.486;4.650;2023-05-21T03:12:49;102030.88;;;15.75;67.78
37852;BME280;23691;52.486;4.650;2023-05-21T03:15:15;102029.00;;;15.76;67.86
37852;BME280;23691;52.486;4.650;2023-05-21T03:17:40;102027.16;;;15.76;67.82
37852;BME280;23691;52.486;4.650;2023-05-21T03:20:07;102028.16;;;15.75;67.54
37852;BME280;23691;52.486;4.650;2023-05-21T03:22:33;102014.84;;;15.74;67.75
37852;BME280;23691;52.486;4.650;2023-05-21T03:24:59;102016.50;;;15.75;67.93
37852;BME280;23691;52.486;4.650;2023-05-21T03:27:26;102011.78;;;15.77;67.64
37852;BME280;23691;52.486;4.650;2023-05-21T03:29:51;102021.41;;;15.79;67.79
37852;BME280;23691;52.486;4.650;2023-05-21T03:32:19;102018.34;;;15.82;67.45
37852;BME280;23691;52.486;4.650;2023-05-21T03:34:44;102015.16;;;15.87;67.69
37852;BME280;23691;52.486;4.650;2023-05-21T03:37:10;102014.66;;;15.83;67.54
37852;BME280;23691;52.486;4.650;2023-05-21T03:39:35;102010.63;;;15.87;67.61
37852;BME280;23691;52.486;4.650;2023-05-21T03:42:00;102013.63;;;15.84;67.82
37852;BME280;23691;52.486;4.650;2023-05-21T03:44:26;102004.22;;;15.80;67.75
37852;BME280;23691;52.486;4.650;2023-05-21T03:46:52;102012.47;;;15.79;67.92
37852;BME280;23691;52.486;4.650;2023-05-21T03:49:17;102013.16;;;15.81;67.97
37852;BME280;23691;52.486;4.650;2023-05-21T03:51:42;102017.53;;;15.82;67.63
37852;BME280;23691;52.486;4.650;2023-05-21T03:54:08;102012.81;;;15.84;67.69
37852;BME280;23691;52.486;4.650;2023-05-21T03:56:33;102009.63;;;15.80;67.64
37852;BME280;23691;52.486;4.650;2023-05-21T03:58:58;102016.69;;;15.81;67.68
37852;BME280;23691;52.486;4.650;2023-05-21T04:01:24;102009.63;;;15.80;68.10
37852;BME280;23691;52.486;4.650;2023-05-21T04:03:49;102008.59;;;15.81;68.04
37852;BME280;23691;52.486;4.650;2023-05-21T04:06:15;102010.25;;;15.82;68.09
37852;BME280;23691;52.486;4.650;2023-05-21T04:08:41;102010.44;;;15.81;68.06
37852;BME280;23691;52.486;4.650;2023-05-21T04:11:06;102016.69;;;15.81;68.26
37852;BME280;23691;52.486;4.650;2023-05-21T04:13:32;102022.91;;;15.82;68.23
37852;BME280;23691;52.486;4.650;2023-05-21T04:15:57;102019.06;;;15.76;68.18
37852;BME280;23691;52.486;4.650;2023-05-21T04:18:22;102021.59;;;15.78;68.26
37852;BME280;23691;52.486;4.650;2023-05-21T04:20:50;102015.84;;;15.81;68.30
37852;BME280;23691;52.486;4.650;2023-05-21T04:23:15;102020.56;;;15.79;68.47
37852;BME280;23691;52.486;4.650;2023-05-21T04:25:41;102017.72;;;15.80;68.45
37852;BME280;23691;52.486;4.650;2023-05-21T04:28:06;102025.28;;;15.77;68.30
37852;BME280;23691;52.486;4.650;2023-05-21T04:30:32;102020.72;;;15.77;68.52
37852;BME280;23691;52.486;4.650;2023-05-21T04:33:00;102026.44;;;15.82;68.53
37852;BME280;23691;52.486;4.650;2023-05-21T04:35:26;102021.72;;;15.84;68.20
37852;BME280;23691;52.486;4.650;2023-05-21T04:37:51;102027.81;;;15.86;68.34
37852;BME280;23691;52.486;4.650;2023-05-21T04:40:19;102033.72;;;15.90;68.05
37852;BME280;23691;52.486;4.650;2023-05-21T04:42:49;102029.84;;;15.93;68.35
37852;BME280;23691;52.486;4.650;2023-05-21T04:45:17;102025.63;;;15.90;68.06
37852;BME280;23691;52.486;4.650;2023-05-21T04:47:43;102026.13;;;15.94;68.01
37852;BME280;23691;52.486;4.650;2023-05-21T04:50:09;102020.88;;;15.92;68.27
37852;BME280;23691;52.486;4.650;2023-05-21T04:52:35;102024.59;;;15.91;68.17
37852;BME280;23691;52.486;4.650;2023-05-21T04:55:02;102028.13;;;15.92;68.50
37852;BME280;23691;52.486;4.650;2023-05-21T04:57:27;102030.16;;;15.98;68.21
37852;BME280;23691;52.486;4.650;2023-05-21T04:59:53;102023.38;;;16.02;68.13
37852;BME280;23691;52.486;4.650;2023-05-21T05:02:19;102024.38;;;16.09;67.97
37852;BME280;23691;52.486;4.650;2023-05-21T05:04:44;102023.03;;;16.13;67.77
37852;BME280;23691;52.486;4.650;2023-05-21T05:07:10;102015.97;;;16.12;67.82
37852;BME280;23691;52.486;4.650;2023-05-21T05:09:36;102010.53;;;16.20;67.69
37852;BME280;23691;52.486;4.650;2023-05-21T05:12:01;102013.41;;;16.27;67.38
37852;BME280;23691;52.486;4.650;2023-05-21T05:14:26;102015.03;;;16.36;67.59
37852;BME280;23691;52.486;4.650;2023-05-21T05:16:52;102008.75;;;16.44;67.04
37852;BME280;23691;52.486;4.650;2023-05-21T05:19:18;102006.38;;;16.49;66.92
37852;BME280;23691;52.486;4.650;2023-05-21T05:21:43;102004.16;;;16.52;67.13
37852;BME280;23691;52.486;4.650;2023-05-21T05:24:09;102003.34;;;16.52;67.25
37852;BME280;23691;52.486;4.650;2023-05-21T05:26:34;102002.50;;;16.51;67.10
37852;BME280;23691;52.486;4.650;2023-05-21T05:28:59;102005.00;;;16.53;67.21
37852;BME280;23691;52.486;4.650;2023-05-21T05:31:25;101999.97;;;16.50;67.01
37852;BME280;23691;52.486;4.650;2023-05-21T05:33:50;102004.53;;;16.49;67.28
37852;BME280;23691;52.486;4.650;2023-05-21T05:36:15;102003.34;;;16.52;66.99
37852;BME280;23691;52.486;4.650;2023-05-21T05:38:41;102005.69;;;16.55;66.91
37852;BME280;23691;52.486;4.650;2023-05-21T05:41:06;101992.00;;;16.57;66.98
37852;BME280;23691;52.486;4.650;2023-05-21T05:43:31;101996.03;;;16.61;67.12
37852;BME280;23691;52.486;4.650;2023-05-21T05:45:57;101994.81;;;16.63;67.04
37852;BME280;23691;52.486;4.650;2023-05-21T05:48:22;102001.56;;;16.67;66.93
37852;BME280;23691;52.486;4.650;2023-05-21T05:50:48;101996.84;;;16.69;66.69
37852;BME280;23691;52.486;4.650;2023-05-21T05:53:13;101988.88;;;16.76;66.93
37852;BME280;23691;52.486;4.650;2023-05-21T05:55:39;101998.16;;;16.82;66.33
37852;BME280;23691;52.486;4.650;2023-05-21T05:58:05;101992.53;;;16.83;66.43
37852;BME280;23691;52.486;4.650;2023-05-21T06:00:30;101982.41;;;16.85;66.12
37852;BME280;23691;52.486;4.650;2023-05-21T06:02:56;101989.16;;;16.89;66.38
37852;BME280;23691;52.486;4.650;2023-05-21T06:05:21;101987.13;;;16.91;66.23
37852;BME280;23691;52.486;4.650;2023-05-21T06:07:46;101983.50;;;16.99;66.12
37852;BME280;23691;52.486;4.650;2023-05-21T06:10:12;101988.50;;;17.10;65.69
37852;BME280;23691;52.486;4.650;2023-05-21T06:12:37;101993.50;;;17.22;65.87
37852;BME280;23691;52.486;4.650;2023-05-21T06:15:04;101986.81;;;17.32;65.82
37852;BME280;23691;52.486;4.650;2023-05-21T06:17:30;101983.22;;;17.40;65.54
37852;BME280;23691;52.486;4.650;2023-05-21T06:19:56;101985.00;;;17.48;65.40
37852;BME280;23691;52.486;4.650;2023-05-21T06:22:21;101984.19;;;17.62;65.34
37852;BME280;23691;52.486;4.650;2023-05-21T06:24:46;101990.81;;;17.83;64.98
37852;BME280;23691;52.486;4.650;2023-05-21T06:27:12;101986.63;;;17.95;64.70
37852;BME280;23691;52.486;4.650;2023-05-21T06:29:37;101991.19;;;18.09;64.91
37852;BME280;23691;52.486;4.650;2023-05-21T06:32:05;101978.28;;;18.11;65.13
37852;BME280;23691;52.486;4.650;2023-05-21T06:34:31;101992.03;;;18.24;64.40
37852;BME280;23691;52.486;4.650;2023-05-21T06:36:56;101988.38;;;18.47;63.90
37852;BME280;23691;52.486;4.650;2023-05-21T06:39:22;101991.97;;;18.69;63.46
37852;BME280;23691;52.486;4.650;2023-05-21T06:41:48;101997.53;;;18.97;63.19
37852;BME280;23691;52.486;4.650;2023-05-21T06:44:14;101985.59;;;19.13;62.57
37852;BME280;23691;52.486;4.650;2023-05-21T06:46:41;101994.84;;;19.19;62.28
37852;BME280;23691;52.486;4.650;2023-05-21T06:49:06;101996.13;;;19.23;61.89
37852;BME280;23691;52.486;4.650;2023-05-21T06:51:32;102004.97;;;19.31;61.49
37852;BME280;23691;52.486;4.650;2023-05-21T06:53:57;102006.34;;;19.42;61.28
37852;BME280;23691;52.486;4.650;2023-05-21T06:56:23;102001.81;;;19.28;60.94
37852;BME280;23691;52.486;4.650;2023-05-21T06:58:48;102005.94;;;19.24;60.76
37852;BME280;23691;52.486;4.650;2023-05-21T07:01:14;102005.84;;;19.32;60.58
37852;BME280;23691;52.486;4.650;2023-05-21T07:03:40;102006.47;;;19.34;60.15
37852;BME280;23691;52.486;4.650;2023-05-21T07:06:06;102002.72;;;19.35;60.04
37852;BME280;23691;52.486;4.650;2023-05-21T07:08:31;102004.22;;;19.38;60.17
37852;BME280;23691;52.486;4.650;2023-05-21T07:10:57;102001.09;;;19.62;59.41
37852;BME280;23691;52.486;4.650;2023-05-21T07:13:22;101992.66;;;19.79;59.27
37852;BME280;23691;52.486;4.650;2023-05-21T07:15:48;101997.16;;;19.93;58.99
37852;BME280;23691;52.486;4.650;2023-05-21T07:18:13;101996.97;;;19.94;58.77
37852;BME280;23691;52.486;4.650;2023-05-21T07:20:38;101999.88;;;19.93;58.72
37852;BME280;23691;52.486;4.650;2023-05-21T07:23:04;101999.28;;;19.98;58.65
37852;BME280;23691;52.486;4.650;2023-05-21T07:25:30;102004.53;;;20.06;58.54
37852;BME280;23691;52.486;4.650;2023-05-21T07:27:55;102010.13;;;19.98;58.55
37852;BME280;23691;52.486;4.650;2023-05-21T07:30:21;102005.53;;;19.98;58.39
37852;BME280;23691;52.486;4.650;2023-05-21T07:32:48;102006.00;;;20.02;58.21
37852;BME280;23691;52.486;4.650;2023-05-21T07:35:13;102010.84;;;20.13;58.02
37852;BME280;23691;52.486;4.650;2023-05-21T07:37:38;102013.63;;;20.20;57.58
37852;BME280;23691;52.486;4.650;2023-05-21T07:40:05;102011.06;;;20.11;57.62
37852;BME280;23691;52.486;4.650;2023-05-21T07:42:31;102013.78;;;20.11;57.59
37852;BME280;23691;52.486;4.650;2023-05-21T07:44:57;102003.56;;;20.13;57.63
37852;BME280;23691;52.486;4.650;2023-05-21T07:47:22;102014.63;;;20.12;57.63
37852;BME280;23691;52.486;4.650;2023-05-21T07:49:48;102014.84;;;20.17;57.46
37852;BME280;23691;52.486;4.650;2023-05-21T07:52:13;102014.91;;;20.24;57.25
37852;BME280;23691;52.486;4.650;2023-05-21T07:54:39;102015.34;;;20.27;57.30
37852;BME280;23691;52.486;4.650;2023-05-21T07:57:04;102014.72;;;20.32;57.21
37852;BME280;23691;52.486;4.650;2023-05-21T07:59:30;102010.19;;;20.39;57.06
37852;BME280;23691;52.486;4.650;2023-05-21T08:01:55;102022.09;;;20.38;57.04
37852;BME280;23691;52.486;4.650;2023-05-21T08:04:21;102014.13;;;20.36;57.22
37852;BME280;23691;52.486;4.650;2023-05-21T08:06:46;102012.47;;;20.35;56.85
37852;BME280;23691;52.486;4.650;2023-05-21T08:09:13;102013.56;;;20.48;56.41
37852;BME280;23691;52.486;4.650;2023-05-21T08:11:38;102009.28;;;20.67;56.04
37852;BME280;23691;52.486;4.650;2023-05-21T08:14:04;102011.91;;;20.95;55.31
37852;BME280;23691;52.486;4.650;2023-05-21T08:16:29;102007.91;;;21.04;55.23
37852;BME280;23691;52.486;4.650;2023-05-21T08:18:55;102009.41;;;21.07;55.20
37852;BME280;23691;52.486;4.650;2023-05-21T08:21:21;102013.19;;;21.12;55.04
37852;BME280;23691;52.486;4.650;2023-05-21T08:23:46;102012.97;;;21.14;54.79
37852;BME280;23691;52.486;4.650;2023-05-21T08:26:12;102013.19;;;21.12;54.68
37852;BME280;23691;52.486;4.650;2023-05-21T08:28:40;102007.75;;;21.12;55.18
37852;BME280;23691;52.486;4.650;2023-05-21T08:31:06;102005.25;;;21.31;54.63
37852;BME280;23691;52.486;4.650;2023-05-21T08:33:34;102010.97;;;21.62;54.20
37852;BME280;23691;52.486;4.650;2023-05-21T08:36:01;102010.97;;;21.69;54.24
37852;BME280;23691;52.486;4.650;2023-05-21T08:38:27;102003.03;;;21.61;54.16
37852;BME280;23691;52.486;4.650;2023-05-21T08:40:53;102005.53;;;21.69;53.91
37852;BME280;23691;52.486;4.650;2023-05-21T08:43:19;101997.53;;;21.94;53.46
37852;BME280;23691;52.486;4.650;2023-05-21T08:45:52;101998.75;;;22.12;53.27
37852;BME280;23691;52.486;4.650;2023-05-21T08:48:18;101992.69;;;22.23;52.73
37852;BME280;23691;52.486;4.650;2023-05-21T08:50:44;101993.25;;;22.32;52.52
37852;BME280;23691;52.486;4.650;2023-05-21T08:53:09;101997.19;;;22.49;52.62
37852;BME280;23691;52.486;4.650;2023-05-21T08:55:35;101995.25;;;22.63;51.95
37852;BME280;23691;52.486;4.650;2023-05-21T08:58:03;101993.31;;;22.70;51.52
37852;BME280;23691;52.486;4.650;2023-05-21T09:00:28;101999.63;;;22.64;51.28
37852;BME280;23691;52.486;4.650;2023-05-21T09:02:54;101998.38;;;22.66;51.64
37852;BME280;23691;52.486;4.650;2023-05-21T09:05:21;101993.31;;;22.77;51.59
37852;BME280;23691;52.486;4.650;2023-05-21T09:08:00;101982.28;;;22.97;50.88
37852;BME280;23691;52.486;4.650;2023-05-21T09:10:41;101979.97;;;23.25;50.42
37852;BME280;23691;52.486;4.650;2023-05-21T09:13:11;101975.09;;;23.34;50.44
37852;BME280;23691;52.486;4.650;2023-05-21T09:15:37;101980.56;;;23.34;50.08
37852;BME280;23691;52.486;4.650;2023-05-21T09:18:02;101980.31;;;23.35;49.80
37852;BME280;23691;52.486;4.650;2023-05-21T09:20:28;101977.81;;;23.59;49.40
37852;BME280;23691;52.486;4.650;2023-05-21T09:22:53;101985.25;;;23.77;49.04
37852;BME280;23691;52.486;4.650;2023-05-21T09:25:22;101982.47;;;24.02;48.67
37852;BME280;23691;52.486;4.650;2023-05-21T09:27:48;101969.97;;;24.13;48.20
37852;BME280;23691;52.486;4.650;2023-05-21T09:30:15;101966.53;;;23.99;47.79
37852;BME280;23691;52.486;4.650;2023-05-21T09:32:43;101973.19;;;23.85;48.69
37852;BME280;23691;52.486;4.650;2023-05-21T09:35:11;101974.41;;;23.89;48.22
37852;BME280;23691;52.486;4.650;2023-05-21T09:37:43;101977.22;;;23.82;47.96
37852;BME280;23691;52.486;4.650;2023-05-21T09:40:19;101972.44;;;23.96;47.56
37852;BME280;23691;52.486;4.650;2023-05-21T09:42:54;101973.00;;;24.05;47.41
37852;BME280;23691;52.486;4.650;2023-05-21T09:45:21;101979.38;;;23.98;46.74
37852;BME280;23691;52.486;4.650;2023-05-21T09:47:48;101969.88;;;24.01;46.85
37852;BME280;23691;52.486;4.650;2023-05-21T09:50:19;101975.72;;;23.86;46.75
37852;BME280;23691;52.486;4.650;2023-05-21T09:52:45;101978.81;;;23.65;46.76
37852;BME280;23691;52.486;4.650;2023-05-21T09:55:12;101975.16;;;23.52;47.45
37852;BME280;23691;52.486;4.650;2023-05-21T09:57:45;101969.50;;;23.72;46.68
37852;BME280;23691;52.486;4.650;2023-05-21T10:00:21;101976.16;;;23.83;46.10
37852;BME280;23691;52.486;4.650;2023-05-21T10:02:49;101971.94;;;24.06;46.34
37852;BME280;23691;52.486;4.650;2023-05-21T10:05:15;101959.91;;;24.07;45.81
37852;BME280;23691;52.486;4.650;2023-05-21T10:07:44;101963.88;;;24.11;45.81
37852;BME280;23691;52.486;4.650;2023-05-21T10:10:13;101965.75;;;24.29;45.63
37852;BME280;23691;52.486;4.650;2023-05-21T10:12:59;101964.84;;;24.53;45.40
37852;BME280;23691;52.486;4.650;2023-05-21T10:15:27;101954.81;;;24.66;45.12
37852;BME280;23691;52.486;4.650;2023-05-21T10:17:55;101955.81;;;24.83;44.61
37852;BME280;23691;52.486;4.650;2023-05-21T10:20:21;101953.81;;;24.90;44.73
37852;BME280;23691;52.486;4.650;2023-05-21T10:22:49;101962.53;;;24.99;44.62
37852;BME280;23691;52.486;4.650;2023-05-21T10:25:14;101954.91;;;24.89;44.27
37852;BME280;23691;52.486;4.650;2023-05-21T10:27:40;101942.69;;;24.73;44.39
37852;BME280;23691;52.486;4.650;2023-05-21T10:30:06;101939.72;;;24.75;44.32
37852;BME280;23691;52.486;4.650;2023-05-21T10:32:33;101940.59;;;24.87;44.44
37852;BME280;23691;52.486;4.650;2023-05-21T10:34:58;101944.91;;;24.95;44.48
37852;BME280;23691;52.486;4.650;2023-05-21T10:37:25;101939.56;;;25.00;44.21
37852;BME280;23691;52.486;4.650;2023-05-21T10:39:52;101941.81;;;24.91;44.38
37852;BME280;23691;52.486;4.650;2023-05-21T10:53:46;101927.69;;;25.06;43.43
37852;BME280;23691;52.486;4.650;2023-05-21T10:56:28;101919.81;;;25.10;43.50
37852;BME280;23691;52.486;4.650;2023-05-21T10:59:09;101919.00;;;25.09;43.53
37852;BME280;23691;52.486;4.650;2023-05-21T11:01:37;101928.38;;;25.01;43.47
37852;BME280;23691;52.486;4.650;2023-05-21T11:04:04;101918.78;;;25.11;43.35
37852;BME280;23691;52.486;4.650;2023-05-21T11:06:32;101923.09;;;24.88;43.66
37852;BME280;23691;52.486;4.650;2023-05-21T11:09:10;101917.75;;;24.81;44.00
37852;BME280;23691;52.486;4.650;2023-05-21T11:14:39;101927.56;;;24.71;44.23
37852;BME280;23691;52.486;4.650;2023-05-21T11:20:03;101923.28;;;24.63;44.08
37852;BME280;23691;52.486;4.650;2023-05-21T11:22:29;101935.44;;;24.67;43.72
37852;BME280;23691;52.486;4.650;2023-05-21T11:25:00;101931.53;;;24.75;43.76
37852;BME280;23691;52.486;4.650;2023-05-21T11:27:36;101930.47;;;24.88;43.00
37852;BME280;23691;52.486;4.650;2023-05-21T11:30:05;101928.72;;;24.93;42.91
37852;BME280;23691;52.486;4.650;2023-05-21T11:32:38;101921.56;;;24.92;42.76
37852;BME280;23691;52.486;4.650;2023-05-21T11:35:04;101918.03;;;25.03;43.01
37852;BME280;23691;52.486;4.650;2023-05-21T11:37:31;101911.88;;;25.08;42.79
37852;BME280;23691;52.486;4.650;2023-05-21T11:42:42;101913.59;;;25.33;42.45
37852;BME280;23691;52.486;4.650;2023-05-21T11:45:16;101914.88;;;25.30;42.89
37852;BME280;23691;52.486;4.650;2023-05-21T11:47:42;101893.94;;;25.24;42.61
37852;BME280;23691;52.486;4.650;2023-05-21T11:50:11;101908.81;;;25.28;42.69
37852;BME280;23691;52.486;4.650;2023-05-21T11:52:37;101899.19;;;25.25;42.16
37852;BME280;23691;52.486;4.650;2023-05-21T11:55:04;101897.16;;;25.33;41.96
37852;BME280;23691;52.486;4.650;2023-05-21T11:57:29;101891.06;;;25.54;41.89
37852;BME280;23691;52.486;4.650;2023-05-21T11:59:56;101896.41;;;25.84;41.38
37852;BME280;23691;52.486;4.650;2023-05-21T12:02:24;101883.63;;;26.02;41.36
37852;BME280;23691;52.486;4.650;2023-05-21T12:04:51;101882.22;;;25.76;41.56
37852;BME280;23691;52.486;4.650;2023-05-21T12:07:18;101890.13;;;25.48;41.90
37852;BME280;23691;52.486;4.650;2023-05-21T12:09:45;101880.13;;;25.19;41.98
37852;BME280;23691;52.486;4.650;2023-05-21T12:12:11;101879.16;;;25.25;42.02
37852;BME280;23691;52.486;4.650;2023-05-21T12:14:43;101863.47;;;25.20;41.89
37852;BME280;23691;52.486;4.650;2023-05-21T12:17:09;101870.00;;;25.19;41.54
37852;BME280;23691;52.486;4.650;2023-05-21T12:19:37;101873.09;;;25.23;41.81
37852;BME280;23691;52.486;4.650;2023-05-21T12:22:03;101874.03;;;25.28;41.70
37852;BME280;23691;52.486;4.650;2023-05-21T12:24:33;101860.69;;;25.32;41.53
37852;BME280;23691;52.486;4.650;2023-05-21T12:27:01;101861.66;;;25.38;41.62
37852;BME280;23691;52.486;4.650;2023-05-21T12:29:30;101871.28;;;25.52;41.57
37852;BME280;23691;52.486;4.650;2023-05-21T12:31:59;101863.81;;;25.47;41.53
37852;BME280;23691;52.486;4.650;2023-05-21T12:39:43;101861.41;;;25.27;41.47
37852;BME280;23691;52.486;4.650;2023-05-21T12:42:09;101856.91;;;25.33;41.31
37852;BME280;23691;52.486;4.650;2023-05-21T12:44:34;101846.16;;;25.43;41.23
37852;BME280;23691;52.486;4.650;2023-05-21T12:47:00;101856.97;;;25.62;40.59
37852;BME280;23691;52.486;4.650;2023-05-21T12:49:33;101857.56;;;25.64;40.28
37852;BME280;23691;52.486;4.650;2023-05-21T12:52:01;101849.25;;;25.59;40.61
37852;BME280;23691;52.486;4.650;2023-05-21T12:54:29;101863.91;;;25.53;40.45
37852;BME280;23691;52.486;4.650;2023-05-21T12:56:54;101855.22;;;25.56;40.12
37852;BME280;23691;52.486;4.650;2023-05-21T12:59:20;101854.94;;;25.57;40.44
37852;BME280;23691;52.486;4.650;2023-05-21T13:01:46;101845.06;;;25.56;40.52
37852;BME280;23691;52.486;4.650;2023-05-21T13:04:12;101852.25;;;25.45;40.38
37852;BME280;23691;52.486;4.650;2023-05-21T13:06:44;101856.03;;;25.56;40.27
37852;BME280;23691;52.486;4.650;2023-05-21T13:09:09;101838.50;;;25.69;40.07
37852;BME280;23691;52.486;4.650;2023-05-21T13:11:35;101853.72;;;25.77;39.82
37852;BME280;23691;52.486;4.650;2023-05-21T13:14:00;101843.13;;;25.92;39.96
37852;BME280;23691;52.486;4.650;2023-05-21T13:16:25;101843.41;;;26.19;40.00